createdAt,value
2018-05-06T00:02:24.727Z,13.58
2018-05-06T00:04:50.738Z,13.35
2018-05-06T00:07:16.691Z,13.67
2018-05-06T00:09:42.636Z,13.60
2018-05-06T00:12:08.572Z,13.53
2018-05-06T00:14:34.601Z,13.48
2018-05-06T00:17:00.557Z,13.55
2018-05-06T00:19:26.501Z,13.29
2018-05-06T00:21:52.471Z,13.10
2018-05-06T00:24:18.432Z,13.35
2018-05-06T00:26:44.391Z,13.38
2018-05-06T00:29:10.327Z,13.28
2018-05-06T00:31:36.271Z,13.19
2018-05-06T00:34:02.262Z,13.24
2018-05-06T00:36:28.217Z,13.28
2018-05-06T00:38:54.176Z,13.26
2018-05-06T00:41:20.140Z,13.08
2018-05-06T00:43:46.095Z,13.27
2018-05-06T00:46:12.039Z,13.40
2018-05-06T00:48:37.997Z,13.09
2018-05-06T00:51:03.947Z,13.13
2018-05-06T00:53:29.916Z,13.41
2018-05-06T00:55:55.864Z,13.49
2018-05-06T00:58:21.942Z,13.51
2018-05-06T01:00:47.951Z,13.57
2018-05-06T01:03:13.902Z,13.68
2018-05-06T01:05:39.857Z,13.47
2018-05-06T01:08:05.800Z,13.36
2018-05-06T01:10:31.790Z,13.57
2018-05-06T01:12:57.727Z,13.28
2018-05-06T01:15:23.680Z,13.29
2018-05-06T01:17:49.642Z,13.44
2018-05-06T01:20:15.605Z,13.20
2018-05-06T01:22:41.531Z,12.86
2018-05-06T01:25:07.545Z,12.84
2018-05-06T01:27:33.472Z,12.68
2018-05-06T01:29:59.426Z,12.99
2018-05-06T01:32:25.385Z,13.06
2018-05-06T01:34:51.332Z,12.99
2018-05-06T01:37:17.263Z,12.87
2018-05-06T01:39:43.228Z,13.10
2018-05-06T01:42:09.159Z,12.91
2018-05-06T01:44:35.097Z,13.12
2018-05-06T01:47:01.088Z,12.77
2018-05-06T01:49:27.051Z,12.74
2018-05-06T01:51:52.986Z,12.95
2018-05-06T01:54:18.934Z,13.05
2018-05-06T01:56:44.902Z,12.97
2018-05-06T01:59:10.850Z,13.06
2018-05-06T02:01:36.789Z,13.03
2018-05-06T02:04:02.713Z,13.13
2018-05-06T02:06:28.644Z,13.22
2018-05-06T02:08:54.612Z,12.80
2018-05-06T02:11:20.572Z,12.61
2018-05-06T02:13:46.532Z,12.80
2018-05-06T02:16:12.499Z,12.40
2018-05-06T02:18:38.433Z,12.25
2018-05-06T02:21:04.372Z,12.23
2018-05-06T02:23:30.310Z,12.41
2018-05-06T02:25:56.276Z,12.24
2018-05-06T02:28:22.231Z,12.16
2018-05-06T02:30:48.198Z,12.46
2018-05-06T02:33:14.140Z,12.32
2018-05-06T02:35:40.099Z,12.19
2018-05-06T02:38:06.068Z,12.33
2018-05-06T02:40:32.017Z,12.29
2018-05-06T02:42:57.964Z,12.43
2018-05-06T02:45:23.927Z,12.34
2018-05-06T02:47:49.877Z,12.07
2018-05-06T02:50:15.847Z,12.34
2018-05-06T02:52:41.769Z,12.45
2018-05-06T02:55:07.720Z,12.17
2018-05-06T02:57:33.656Z,12.19
2018-05-06T02:59:59.605Z,12.16
2018-05-06T03:02:25.542Z,11.81
2018-05-06T03:04:51.498Z,11.81
2018-05-06T03:07:17.461Z,11.62
2018-05-06T03:09:43.421Z,11.99
2018-05-06T03:12:09.380Z,12.28
2018-05-06T03:14:35.350Z,12.33
2018-05-06T03:17:01.277Z,12.19
2018-05-06T03:19:27.233Z,12.33
2018-05-06T03:21:53.166Z,12.21
2018-05-06T03:24:19.110Z,12.18
2018-05-06T03:26:45.048Z,11.96
2018-05-06T03:29:10.998Z,12.12
2018-05-06T03:31:36.975Z,11.80
2018-05-06T03:34:02.933Z,11.59
2018-05-06T03:36:28.929Z,11.79
2018-05-06T03:38:54.883Z,11.97
2018-05-06T03:41:20.852Z,12.09
2018-05-06T03:43:46.829Z,12.18
2018-05-06T03:46:12.768Z,11.96
2018-05-06T03:48:38.741Z,11.90
2018-05-06T03:51:04.712Z,11.80
2018-05-06T03:53:30.653Z,12.12
2018-05-06T03:55:56.608Z,12.30
2018-05-06T03:58:22.589Z,12.04
2018-05-06T04:00:48.543Z,11.92
2018-05-06T04:03:14.489Z,11.83
2018-05-06T04:05:40.464Z,11.73
2018-05-06T04:08:06.412Z,11.77
2018-05-06T04:10:32.369Z,11.96
2018-05-06T04:12:58.315Z,12.11
2018-05-06T04:15:24.240Z,11.88
2018-05-06T04:17:50.173Z,11.68
2018-05-06T04:20:16.118Z,11.95
2018-05-06T04:22:42.076Z,11.90
2018-05-06T04:25:08.031Z,12.40
2018-05-06T04:27:33.961Z,12.56
2018-05-06T04:29:59.912Z,12.63
2018-05-06T04:32:25.871Z,12.65
2018-05-06T04:34:51.835Z,12.95
2018-05-06T04:37:17.792Z,13.07
2018-05-06T04:39:43.772Z,12.92
2018-05-06T04:44:42.082Z,13.11
2018-05-06T04:47:08.060Z,13.07
2018-05-06T04:49:34.034Z,13.39
2018-05-06T04:52:00.061Z,13.58
2018-05-06T04:54:25.926Z,13.12
2018-05-06T04:56:51.860Z,13.59
2018-05-06T04:59:17.820Z,13.94
2018-05-06T05:01:43.783Z,14.15
2018-05-06T05:04:09.725Z,14.13
2018-05-06T05:06:35.715Z,14.08
2018-05-06T05:09:01.705Z,14.74
2018-05-06T05:11:27.691Z,14.89
2018-05-06T05:13:53.657Z,14.97
2018-05-06T05:16:19.617Z,14.67
2018-05-06T05:18:45.545Z,14.78
2018-05-06T05:21:11.499Z,15.13
2018-05-06T05:23:37.461Z,15.15
2018-05-06T05:26:03.418Z,15.64
2018-05-06T05:28:29.388Z,15.87
2018-05-06T05:30:55.371Z,16.25
2018-05-06T05:33:21.330Z,16.29
2018-05-06T05:35:47.283Z,16.63
2018-05-06T05:38:13.237Z,16.84
2018-05-06T05:40:39.186Z,16.60
2018-05-06T05:43:05.154Z,16.40
2018-05-06T05:45:34.824Z,16.80
2018-05-06T05:48:00.830Z,16.86
2018-05-06T05:50:26.784Z,16.43
2018-05-06T05:52:52.737Z,16.96
2018-05-06T05:55:19.706Z,17.40
2018-05-06T05:57:45.663Z,17.13
2018-05-06T06:00:11.616Z,17.65
2018-05-06T06:02:37.580Z,17.94
2018-05-06T06:05:03.522Z,18.03
2018-05-06T06:07:29.467Z,18.33
2018-05-06T06:09:55.420Z,18.33
2018-05-06T06:12:21.392Z,18.54
2018-05-06T06:14:47.355Z,18.55
2018-05-06T06:17:13.314Z,18.72
2018-05-06T06:19:39.258Z,18.97
2018-05-06T06:22:05.209Z,18.96
2018-05-06T06:24:31.179Z,19.25
2018-05-06T06:26:57.129Z,19.36
2018-05-06T06:29:23.078Z,19.64
2018-05-06T06:31:49.024Z,19.54
2018-05-06T06:34:14.972Z,19.76
2018-05-06T06:36:40.914Z,19.85
2018-05-06T06:39:06.851Z,19.74
2018-05-06T06:41:32.797Z,19.98
2018-05-06T06:43:58.804Z,20.05
2018-05-06T06:46:24.784Z,20.17
2018-05-06T06:48:50.788Z,20.57
2018-05-06T06:51:16.734Z,20.89
2018-05-06T06:53:42.704Z,21.06
2018-05-06T06:56:08.700Z,21.14
2018-05-06T06:58:34.650Z,21.34
2018-05-06T07:01:00.592Z,21.58
2018-05-06T07:03:26.540Z,21.52
2018-05-06T07:05:52.672Z,21.37
2018-05-06T07:08:19.325Z,21.69
2018-05-06T07:10:45.279Z,21.90
2018-05-06T07:13:11.229Z,22.16
2018-05-06T07:15:37.159Z,22.06
2018-05-06T07:18:03.142Z,22.24
2018-05-06T07:20:29.105Z,22.42
2018-05-06T07:22:55.125Z,22.56
2018-05-06T07:25:21.072Z,22.64
2018-05-06T07:27:47.040Z,22.91
2018-05-06T07:30:12.990Z,22.90
2018-05-06T07:32:38.926Z,22.62
2018-05-06T07:35:04.881Z,22.78
2018-05-06T07:37:30.861Z,23.02
2018-05-06T07:39:56.847Z,22.98
2018-05-06T07:42:22.838Z,23.28
2018-05-06T07:44:48.779Z,23.31
2018-05-06T07:47:14.710Z,23.44
2018-05-06T07:49:40.681Z,23.28
2018-05-06T07:52:06.642Z,23.37
2018-05-06T07:54:32.610Z,23.60
2018-05-06T07:56:58.619Z,23.51
2018-05-06T07:59:24.648Z,23.42
2018-05-06T08:01:50.625Z,23.45
2018-05-06T08:04:16.597Z,23.28
2018-05-06T08:06:42.540Z,23.50
2018-05-06T08:09:08.523Z,23.49
2018-05-06T08:11:34.497Z,23.44
2018-05-06T08:14:00.467Z,23.44
2018-05-06T08:16:26.488Z,23.26
2018-05-06T08:18:52.436Z,23.50
2018-05-06T08:21:18.395Z,23.21
2018-05-06T08:23:48.598Z,23.12
2018-05-06T08:26:14.571Z,23.09
2018-05-06T08:28:40.520Z,22.96
2018-05-06T08:31:06.484Z,22.79
2018-05-06T08:33:32.481Z,22.44
2018-05-06T08:35:58.404Z,22.00
2018-05-06T08:38:24.378Z,21.77
2018-05-06T08:40:50.350Z,21.85
2018-05-06T08:43:16.293Z,21.51
2018-05-06T08:45:42.295Z,21.35
2018-05-06T08:48:08.236Z,20.84
2018-05-06T08:50:34.214Z,21.08
2018-05-06T08:53:00.178Z,20.99
2018-05-06T08:55:26.136Z,20.92
2018-05-06T08:57:52.076Z,20.89
2018-05-06T09:00:18.055Z,20.86
2018-05-06T09:02:44.007Z,20.52
2018-05-06T09:05:10.034Z,20.52
2018-05-06T09:07:35.962Z,20.38
2018-05-06T09:10:01.937Z,20.17
2018-05-06T09:12:27.931Z,20.08
2018-05-06T09:14:53.929Z,20.15
2018-05-06T09:17:19.873Z,20.03
2018-05-06T09:19:45.878Z,19.83
2018-05-06T09:22:11.792Z,19.80
2018-05-06T09:24:37.773Z,19.76
2018-05-06T09:27:04.860Z,19.67
2018-05-06T09:29:30.849Z,19.72
2018-05-06T09:31:56.781Z,19.70
2018-05-06T09:34:22.760Z,19.76
2018-05-06T09:41:57.404Z,19.65
2018-05-06T09:46:56.805Z,19.60
2018-05-06T09:49:22.796Z,19.68
2018-05-06T09:51:48.805Z,19.58
2018-05-06T09:54:14.749Z,19.64
2018-05-06T09:56:40.765Z,19.47
2018-05-06T09:59:06.764Z,19.82
2018-05-06T10:01:32.809Z,19.72
2018-05-06T10:03:58.728Z,19.59
2018-05-06T10:06:24.768Z,19.42
2018-05-06T10:08:50.763Z,19.37
2018-05-06T10:11:16.809Z,19.44
2018-05-06T10:13:42.762Z,19.48
2018-05-06T10:16:08.710Z,19.53
2018-05-06T10:18:34.662Z,19.52
2018-05-06T10:21:00.613Z,19.53
2018-05-06T10:23:26.572Z,19.68
2018-05-06T10:25:52.539Z,19.65
2018-05-06T10:28:18.869Z,19.47
2018-05-06T10:30:44.830Z,19.62
2018-05-06T10:33:10.770Z,19.54
2018-05-06T10:35:36.744Z,19.67
2018-05-06T10:38:02.681Z,19.57
2018-05-06T10:40:28.679Z,19.46
2018-05-06T10:42:54.643Z,19.60
2018-05-06T10:45:20.624Z,19.64
2018-05-06T10:47:46.588Z,19.59
2018-05-06T10:50:12.569Z,19.62
2018-05-06T10:52:38.595Z,19.63
2018-05-06T10:55:04.656Z,19.58
2018-05-06T10:57:30.667Z,19.69
2018-05-06T10:59:56.660Z,19.77
2018-05-06T11:02:22.625Z,19.69
2018-05-06T11:04:48.576Z,19.72
2018-05-06T11:07:14.547Z,19.72
2018-05-06T11:09:40.580Z,19.57
2018-05-06T11:12:06.522Z,19.55
2018-05-06T11:14:32.472Z,19.64
2018-05-06T11:16:58.422Z,19.83
2018-05-06T11:19:24.402Z,19.67
2018-05-06T11:21:50.376Z,19.69
2018-05-06T11:24:16.333Z,19.54
2018-05-06T11:26:42.282Z,19.62
2018-05-06T11:29:08.223Z,19.68
2018-05-06T11:31:34.190Z,19.71
2018-05-06T11:34:00.189Z,19.69
2018-05-06T11:36:26.141Z,19.73
2018-05-06T11:38:52.093Z,19.70
2018-05-06T11:41:18.052Z,19.65
2018-05-06T11:43:44.007Z,19.73
2018-05-06T11:46:11.048Z,19.62
2018-05-06T11:48:37.003Z,19.67
2018-05-06T11:51:02.969Z,19.57
2018-05-06T11:53:29.082Z,19.57
2018-05-06T11:55:55.084Z,19.67
2018-05-06T11:58:21.048Z,19.71
2018-05-06T12:00:47.013Z,19.69
2018-05-06T12:03:12.977Z,19.64
2018-05-06T12:05:38.953Z,19.67
2018-05-06T12:08:05.041Z,19.77
2018-05-06T12:10:31.036Z,19.92
2018-05-06T12:12:57.018Z,19.81
2018-05-06T12:15:23.002Z,19.80
2018-05-06T12:17:48.961Z,19.85
2018-05-06T12:20:14.908Z,19.96
2018-05-06T12:22:40.881Z,19.99
2018-05-06T12:25:06.854Z,20.00
2018-05-06T12:27:32.818Z,20.01
2018-05-06T12:29:58.786Z,19.78
2018-05-06T12:32:24.709Z,19.73
2018-05-06T12:34:50.719Z,19.64
2018-05-06T12:37:16.693Z,20.05
2018-05-06T12:39:42.659Z,20.06
2018-05-06T12:42:09.741Z,19.80
2018-05-06T12:44:35.804Z,19.73
2018-05-06T12:47:01.810Z,19.76
2018-05-06T12:49:27.867Z,19.73
2018-05-06T12:51:54.181Z,19.71
2018-05-06T12:54:20.481Z,19.82
2018-05-06T12:56:46.599Z,19.85
2018-05-06T12:59:12.554Z,19.85
2018-05-06T13:01:38.612Z,19.82
2018-05-06T13:04:04.627Z,19.95
2018-05-06T13:06:30.647Z,20.02
2018-05-06T13:08:56.709Z,19.78
2018-05-06T13:11:22.760Z,19.67
2018-05-06T13:13:48.700Z,19.73
2018-05-06T13:16:14.701Z,19.88
2018-05-06T13:18:40.722Z,19.89
2018-05-06T13:21:06.751Z,19.91
2018-05-06T13:23:32.707Z,19.88
2018-05-06T13:25:58.660Z,19.78
2018-05-06T13:28:25.329Z,19.82
2018-05-06T13:30:51.305Z,19.96
2018-05-06T13:33:17.287Z,19.83
2018-05-06T13:35:43.241Z,20.06
2018-05-06T13:38:09.178Z,19.90
2018-05-06T13:40:35.164Z,19.95
2018-05-06T13:43:01.110Z,19.96
2018-05-06T13:45:27.152Z,19.92
2018-05-06T13:47:54.066Z,19.93
2018-05-06T13:50:20.022Z,20.06
2018-05-06T13:52:46.289Z,20.08
2018-05-06T13:55:12.265Z,20.06
2018-05-06T13:57:38.238Z,19.96
2018-05-06T14:00:04.195Z,19.95
2018-05-06T14:02:30.139Z,20.07
2018-05-06T14:04:56.092Z,20.01
2018-05-06T14:07:22.081Z,20.08
2018-05-06T14:09:48.096Z,20.11
2018-05-06T14:12:14.115Z,20.00
2018-05-06T14:14:40.126Z,20.04
2018-05-06T14:17:06.102Z,19.87
2018-05-06T14:19:32.079Z,19.91
2018-05-06T14:21:58.085Z,19.93
2018-05-06T14:24:24.021Z,19.95
2018-05-06T14:26:50.045Z,19.86
2018-05-06T14:29:16.093Z,20.08
2018-05-06T14:31:42.150Z,20.09
2018-05-06T14:34:08.265Z,20.20
2018-05-06T14:36:34.265Z,20.05
2018-05-06T14:39:00.526Z,20.14
2018-05-06T14:41:26.604Z,20.13
2018-05-06T14:43:52.897Z,20.04
2018-05-06T14:46:18.880Z,20.03
2018-05-06T14:48:44.840Z,20.01
2018-05-06T14:51:10.815Z,20.02
2018-05-06T14:53:36.826Z,20.03
2018-05-06T14:56:02.822Z,19.99
2018-05-06T14:58:28.812Z,20.12
2018-05-06T15:00:54.808Z,20.16
2018-05-06T15:03:20.803Z,20.01
2018-05-06T15:05:46.822Z,20.02
2018-05-06T15:08:14.900Z,19.99
2018-05-06T15:10:42.686Z,19.90
2018-05-06T15:13:08.607Z,19.89
2018-05-06T15:15:36.658Z,19.81
2018-05-06T15:18:02.576Z,19.82
2018-05-06T15:20:28.630Z,19.97
2018-05-06T15:22:54.678Z,20.00
2018-05-06T15:25:20.859Z,19.99
2018-05-06T15:27:46.897Z,19.92
2018-05-06T15:30:12.867Z,19.99
2018-05-06T15:32:38.838Z,20.01
2018-05-06T15:35:05.775Z,20.02
2018-05-06T15:37:31.776Z,20.03
2018-05-06T15:39:57.864Z,19.94
2018-05-06T15:42:23.866Z,19.89
2018-05-06T15:44:49.927Z,19.83
2018-05-06T15:47:15.932Z,19.90
2018-05-06T15:49:41.926Z,19.87
2018-05-06T15:52:07.895Z,19.91
2018-05-06T15:54:33.900Z,19.94
2018-05-06T15:56:59.893Z,19.91
2018-05-06T15:59:25.956Z,19.86
2018-05-06T16:01:52.017Z,19.90
2018-05-06T16:04:19.950Z,19.88
2018-05-06T16:06:46.053Z,19.96
2018-05-06T16:09:12.004Z,19.96
2018-05-06T16:11:37.970Z,19.99
2018-05-06T16:14:03.918Z,20.01
2018-05-06T16:16:30.101Z,20.02
2018-05-06T16:18:56.065Z,19.99
2018-05-06T16:21:22.025Z,19.87
2018-05-06T16:23:48.514Z,19.92
2018-05-06T16:26:15.504Z,19.87
2018-05-06T16:28:41.666Z,19.86
2018-05-06T16:31:07.731Z,19.84
2018-05-06T16:33:33.744Z,19.87
2018-05-06T16:35:59.731Z,19.89
2018-05-06T16:38:25.912Z,19.93
2018-05-06T16:40:51.888Z,19.81
2018-05-06T16:43:17.959Z,19.83
2018-05-06T16:45:43.989Z,19.81
2018-05-06T16:48:09.953Z,19.81
2018-05-06T16:50:36.024Z,19.84
2018-05-06T16:53:02.146Z,19.84
2018-05-06T16:55:28.470Z,19.85
2018-05-06T16:57:54.516Z,19.96
2018-05-06T17:00:20.530Z,20.16
2018-05-06T17:02:46.517Z,20.02
2018-05-06T17:05:12.489Z,20.04
2018-05-06T17:07:38.430Z,20.01
2018-05-06T17:10:04.369Z,19.98
2018-05-06T17:12:30.395Z,19.89
2018-05-06T17:14:56.339Z,19.80
2018-05-06T17:17:22.356Z,19.75
2018-05-06T17:19:48.429Z,19.75
2018-05-06T17:22:14.401Z,19.75
2018-05-06T17:24:40.362Z,19.76
2018-05-06T17:27:06.382Z,19.76
2018-05-06T17:29:32.563Z,19.74
2018-05-06T17:31:58.659Z,19.81
2018-05-06T17:34:24.679Z,19.76
2018-05-06T17:36:55.775Z,19.80
2018-05-06T17:39:22.785Z,19.86
2018-05-06T17:41:48.788Z,19.82
2018-05-06T17:44:14.796Z,19.82
2018-05-06T17:46:40.848Z,19.84
2018-05-06T17:49:06.858Z,19.79
2018-05-06T17:51:33.916Z,19.73
2018-05-06T17:53:59.935Z,19.78
2018-05-06T17:56:25.915Z,19.70
2018-05-06T17:58:51.984Z,19.68
2018-05-06T18:01:18.162Z,19.79
2018-05-06T18:03:44.221Z,19.78
2018-05-06T18:06:13.475Z,19.66
2018-05-06T18:08:39.435Z,19.69
2018-05-06T18:11:06.499Z,19.67
2018-05-06T18:13:32.541Z,19.70
2018-05-06T18:15:58.561Z,19.61
2018-05-06T18:18:24.559Z,19.65
2018-05-06T18:20:51.542Z,19.64
2018-05-06T18:23:18.589Z,19.60
2018-05-06T18:25:44.570Z,19.48
2018-05-06T18:28:10.650Z,19.44
2018-05-06T18:30:38.771Z,19.44
2018-05-06T18:33:05.062Z,19.37
2018-05-06T18:35:31.056Z,19.36
2018-05-06T18:37:58.112Z,19.40
2018-05-06T18:40:24.102Z,19.46
2018-05-06T18:42:50.225Z,19.34
2018-05-06T18:45:17.325Z,19.32
2018-05-06T18:47:43.442Z,19.36
2018-05-06T18:50:09.493Z,19.24
2018-05-06T18:52:35.615Z,19.24
2018-05-06T18:55:01.710Z,19.22
2018-05-06T18:57:29.869Z,19.23
2018-05-06T18:59:55.840Z,19.27
2018-05-06T19:02:21.796Z,19.35
2018-05-06T19:04:49.022Z,19.27
2018-05-06T19:07:15.002Z,19.27
2018-05-06T19:09:41.060Z,19.13
2018-05-06T19:12:07.197Z,19.14
2018-05-06T19:14:33.285Z,19.23
2018-05-06T19:16:59.406Z,19.16
2018-05-06T19:19:26.516Z,19.15
2018-05-06T19:21:52.592Z,19.15
2018-05-06T19:24:18.610Z,19.18
2018-05-06T19:26:44.750Z,19.09
2018-05-06T19:29:10.812Z,19.05
2018-05-06T19:31:42.434Z,19.10
2018-05-06T19:34:09.456Z,19.09
2018-05-06T19:36:35.457Z,19.00
2018-05-06T19:39:01.547Z,19.02
2018-05-06T19:41:27.629Z,19.01
2018-05-06T19:43:53.624Z,18.94
2018-05-06T19:46:19.738Z,18.85
2018-05-06T19:48:45.878Z,18.87
2018-05-06T19:51:11.810Z,18.83
2018-05-06T19:53:37.849Z,18.93
2018-05-06T19:56:04.046Z,18.76
2018-05-06T19:58:30.099Z,18.83
2018-05-06T20:00:57.082Z,18.79
2018-05-06T20:03:27.902Z,18.74
2018-05-06T20:05:54.348Z,18.57
2018-05-06T20:08:20.464Z,18.47
2018-05-06T20:10:46.642Z,18.29
2018-05-06T20:13:12.701Z,18.28
2018-05-06T20:15:38.713Z,18.40
2018-05-06T20:18:06.821Z,18.30
2018-05-06T20:20:32.810Z,18.38
2018-05-06T20:22:59.912Z,18.28
2018-05-06T20:25:25.984Z,18.10
2018-05-06T20:27:52.022Z,18.27
2018-05-06T20:30:18.149Z,18.16
2018-05-06T20:35:17.225Z,17.95
2018-05-06T20:37:43.441Z,17.86
2018-05-06T20:40:09.428Z,17.83
2018-05-06T20:42:35.395Z,17.60
2018-05-06T20:45:01.375Z,17.58
2018-05-06T20:47:27.370Z,17.53
2018-05-06T20:49:53.350Z,17.67
2018-05-06T20:52:19.420Z,17.74
2018-05-06T20:54:45.378Z,17.42
2018-05-06T20:57:11.343Z,17.32
2018-05-06T20:59:37.313Z,17.38
2018-05-06T21:02:03.357Z,17.02
2018-05-06T21:04:29.550Z,16.95
2018-05-06T21:06:55.557Z,16.62
2018-05-06T21:09:21.511Z,16.77
2018-05-06T21:11:47.445Z,16.63
2018-05-06T21:14:13.402Z,16.86
2018-05-06T21:16:39.362Z,16.88
2018-05-06T21:19:05.395Z,16.69
2018-05-06T21:21:31.342Z,16.31
2018-05-06T21:23:57.365Z,16.62
2018-05-06T21:26:23.399Z,16.53
2018-05-06T21:28:49.871Z,16.34
2018-05-06T21:31:15.872Z,16.29
2018-05-06T21:33:41.845Z,16.46
2018-05-06T21:36:07.833Z,16.11
2018-05-06T21:38:33.892Z,15.79
2018-05-06T21:40:59.859Z,15.87
2018-05-06T21:43:25.886Z,15.96
2018-05-06T21:45:51.847Z,15.99
2018-05-06T21:48:17.808Z,16.09
2018-05-06T21:50:43.791Z,16.00
2018-05-06T21:53:09.833Z,15.98
2018-05-06T21:55:35.877Z,15.98
2018-05-06T21:58:02.013Z,15.98
2018-05-06T22:00:27.996Z,15.82
2018-05-06T22:02:53.950Z,15.89
2018-05-06T22:05:19.890Z,16.07
2018-05-06T22:07:45.850Z,16.13
2018-05-06T22:10:11.839Z,15.87
2018-05-06T22:12:37.813Z,15.65
2018-05-06T22:15:03.765Z,15.64
2018-05-06T22:17:29.715Z,15.82
2018-05-06T22:19:55.657Z,15.96
2018-05-06T22:22:21.604Z,15.59
2018-05-06T22:24:47.570Z,15.49
2018-05-06T22:27:13.514Z,15.46
2018-05-06T22:29:39.466Z,15.67
2018-05-06T22:32:05.415Z,15.63
2018-05-06T22:34:31.361Z,15.46
2018-05-06T22:36:57.320Z,15.58
2018-05-06T22:39:23.298Z,15.76
2018-05-06T22:41:49.238Z,15.69
2018-05-06T22:44:15.218Z,15.73
2018-05-06T22:46:41.166Z,15.58
2018-05-06T22:49:07.151Z,15.49
2018-05-06T22:54:05.398Z,15.40
2018-05-06T22:56:31.417Z,15.31
2018-05-06T22:58:57.351Z,15.32
2018-05-06T23:01:23.292Z,15.06
2018-05-06T23:03:49.234Z,15.05
2018-05-06T23:06:15.176Z,15.12
2018-05-06T23:08:41.165Z,15.15
2018-05-06T23:11:07.134Z,15.22
2018-05-06T23:13:33.152Z,14.89
2018-05-06T23:15:59.032Z,14.92
2018-05-06T23:18:24.988Z,15.05
2018-05-06T23:20:51.007Z,14.78
2018-05-06T23:23:16.903Z,14.97
2018-05-06T23:25:42.907Z,14.97
2018-05-06T23:28:08.869Z,14.97
2018-05-06T23:30:34.819Z,15.04
2018-05-06T23:33:00.766Z,15.05
2018-05-06T23:35:26.758Z,14.96
2018-05-06T23:37:52.640Z,15.01
2018-05-06T23:40:18.584Z,15.12
2018-05-06T23:42:44.525Z,15.04
2018-05-06T23:45:10.489Z,15.12
2018-05-06T23:47:36.464Z,14.77
2018-05-06T23:50:02.440Z,14.76
2018-05-06T23:52:28.372Z,14.96
2018-05-06T23:54:54.326Z,14.82
2018-05-06T23:57:20.283Z,14.82
2018-05-06T23:59:46.247Z,14.65
